Latest Weather Observations for Devonport Airport

IDT60801

Issued at 5:31 am EST Monday 25 May 2015 (issued every 30 minutes, with the page automatically refreshed every 10 minutes)

About weather observations | Map of weather stations | Latest weather observations for TAS | Other Formats
Station Details ID: 091126 Name: DEVONPORT AIRPORT Lat: -41.17 Lon: 146.43 Height: 8.0 m
Data from the previous 72 hours. | See also: Recent months at Devonport Airport
Date/Time
EST
Temp
°C
App
Temp
°C
Dew
Point
Rel
Hum
%
Delta-T
°C
Wind Press
QNH
hPa
Press
MSL
hPa
Rain
since 9 am
mm
Dir
 
Spd
km/h
Gust
km/h
Spd
kts
Gust
kts
25/05:30am 3.3 -1.0 3.3 100 0.0 S 15 20 8 11 1029.7 1029.7 0.0
25/05:07am 3.4 -0.5 3.4 100 0.0 S 13 17 7 9 1029.7 1029.7 0.0
25/05:00am 3.5 -0.8 3.5 100 0.0 S 15 17 8 9 1029.7 1029.7 0.0
25/04:53am 3.6 -0.6 3.6 100 0.0 S 15 20 8 11 1029.7 1029.7 0.0
25/04:30am 3.9 -0.7 3.9 100 0.0 SSE 17 22 9 12 1029.6 1029.6 0.0
25/04:20am 3.2 -0.7 3.2 100 0.0 SSE 13 17 7 9 1029.6 1029.6 0.0
25/04:14am 2.9 -1.5 2.9 100 0.0 SSE 15 19 8 10 1029.6 1029.6 0.0
25/04:00am 3.5 -1.1 3.5 100 0.0 S 17 20 9 11 1029.5 1029.5 0.0
25/03:50am 3.2 -0.7 3.2 100 0.0 S 13 15 7 8 1029.5 1029.5 0.0
25/03:47am 3.2 -1.1 3.2 100 0.0 S 15 19 8 10 1029.5 1029.5 0.0
25/03:33am 3.8 -0.8 3.8 100 0.0 S 17 20 9 11 1029.5 1029.5 0.0
25/03:30am 4.0 -0.2 4.0 100 0.0 S 15 20 8 11 1029.5 1029.5 0.0
25/03:08am 3.9 -0.3 3.9 100 0.0 SSE 15 19 8 10 1029.6 1029.6 0.0
25/03:06am 3.9 -0.3 3.9 100 0.0 SSE 15 19 8 10 1029.6 1029.6 0.0
25/03:02am 3.8 -0.8 3.8 100 0.0 SSE 17 19 9 10 1029.7 1029.7 0.0
25/03:01am 3.7 -0.9 3.7 100 0.0 SSE 17 19 9 10 1029.7 1029.7 0.0
25/03:00am 3.8 -0.8 3.8 100 0.0 SSE 17 19 9 10 1029.7 1029.7 0.0
25/02:58am 3.8 -0.8 3.8 100 0.0 SSE 17 19 9 10 1029.7 1029.7 0.0
25/02:54am 3.7 -0.5 3.7 100 0.0 SSE 15 17 8 9 1029.7 1029.7 0.0
25/02:30am 3.3 0.1 3.3 100 0.0 S 9 15 5 8 1029.9 1029.9 0.0
25/02:00am 3.3 -0.2 3.3 100 0.0 S 11 15 6 8 1029.8 1029.8 0.0
25/01:47am 3.3 -0.6 3.3 100 0.0 S 13 15 7 8 1029.6 1029.6 0.0
25/01:45am 3.3 -0.6 3.3 100 0.0 S 13 15 7 8 1029.6 1029.6 0.0
25/01:30am 3.1 -0.5 3.1 100 0.0 SSE 11 15 6 8 1029.6 1029.6 0.0
25/01:25am 3.1 -0.9 3.1 100 0.0 S 13 15 7 8 1029.6 1029.6 0.0
25/01:11am 2.9 -1.1 2.9 100 0.0 S 13 15 7 8 1029.7 1029.7 0.0
25/01:02am 2.9 -0.7 2.9 100 0.0 S 11 13 6 7 1029.7 1029.7 0.0
25/01:00am 2.8 -1.2 2.8 100 0.0 S 13 15 7 8 1029.7 1029.7 0.0
25/12:52am 2.7 -0.9 2.7 100 0.0 SSW 11 15 6 8 1029.7 1029.7 0.0
25/12:43am 2.5 -0.4 2.5 100 0.0 SSW 7 9 4 5 1029.7 1029.7 0.0
25/12:36am 2.6 -1.1 2.6 100 0.0 SSW 11 13 6 7 1029.7 1029.7 0.0
25/12:30am 2.6 -1.1 2.6 100 0.0 S 11 13 6 7 1029.7 1029.7 0.0
25/12:29am 2.3 -1.4 2.3 100 0.0 S 11 13 6 7 1029.7 1029.7 0.0
25/12:00am 2.5 -0.2 2.5 100 0.0 SW 6 9 3 5 1030.1 1030.1 0.0
 
Date/Time
EST
Temp
°C
App
Temp
°C
Dew
Point
Rel
Hum
%
Delta-T
°C
Wind Press
QNH
hPa
Press
MSL
hPa
Rain
since 9 am
mm
Dir
 
Spd
km/h
Gust
km/h
Spd
kts
Gust
kts
24/11:30pm 3.5 0.8 3.5 100 0.0 S 7 9 4 5 1029.8 1029.8 0.0
24/11:00pm 4.0 0.2 4.0 100 0.0 S 13 15 7 8 1029.9 1029.9 0.0
24/10:30pm 4.2 0.5 4.2 100 0.0 S 13 13 7 7 1029.9 1029.9 0.0
24/10:00pm 4.1 0.7 4.1 100 0.0 SSE 11 11 6 6 1029.9 1029.9 0.0
24/09:30pm 4.0 0.6 4.0 100 0.0 SSE 11 11 6 6 1029.9 1029.9 0.0
24/09:00pm 4.3 1.0 4.3 100 0.0 S 11 13 6 7 1029.8 1029.8 0.0
24/08:30pm 4.2 1.2 4.2 100 0.0 S 9 11 5 6 1029.6 1029.6 0.0
24/08:00pm 4.9 2.0 4.9 100 0.0 S 9 9 5 5 1029.6 1029.6 0.0
24/07:30pm 5.5 2.8 5.5 100 0.0 S 9 11 5 6 1029.7 1029.7 0.0
24/07:00pm 6.1 3.5 6.1 100 0.0 S 9 11 5 6 1029.7 1029.7 0.0
24/06:30pm 7.3 5.5 7.3 100 0.0 SSE 6 7 3 4 1029.8 1029.8 0.0
24/06:13pm 7.5 5.8 7.5 100 0.0 SSE 6 9 3 5 1029.7 1029.7 0.0
24/06:00pm 7.9 6.1 7.9 100 0.0 S 7 9 4 5 1029.7 1029.7 0.0
24/05:30pm 8.1 7.7 8.1 100 0.0 CALM 0 6 0 3 1029.5 1029.5 0.0
24/05:15pm 8.0 7.2 8.0 100 0.0 WSW 2 7 1 4 1029.3 1029.3 0.0
24/05:00pm 9.4 8.2 9.4 100 0.0 NNW 6 11 3 6 1029.4 1029.4 0.0
24/04:30pm 10.0 8.9 10.0 100 0.0 N 6 9 3 5 1029.2 1029.2 0.0
24/04:00pm 10.8 9.4 10.8 100 0.0 N 9 13 5 7 1029.2 1029.2 0.0
24/03:30pm 10.6 9.1 10.6 100 0.0 NNW 9 11 5 6 1029.4 1029.4 0.0
24/03:00pm 10.6 8.3 10.6 100 0.0 NNW 13 17 7 9 1029.3 1029.3 0.0
24/02:30pm 11.0 9.2 11.0 100 0.0 NNW 11 13 6 7 1029.3 1029.3 0.0
24/02:00pm 11.3 10.0 11.3 100 0.0 N 9 13 5 7 1029.3 1029.3 0.0
24/01:30pm 11.4 10.1 11.2 99 0.1 NW 9 13 5 7 1029.7 1029.7 0.0
24/01:00pm 11.5 10.3 11.5 100 0.0 NW 9 11 5 6 1029.9 1029.9 0.0
24/12:30pm 11.2 9.9 11.2 100 0.0 NW 9 11 5 6 1030.0 1030.0 0.0
24/12:00pm 11.4 10.3 10.0 91 0.7 W 6 7 3 4 1030.4 1030.4 0.0
24/11:30am 10.5 9.0 8.6 88 0.9 SSE 6 9 3 5 1030.7 1030.7 0.0
24/11:00am 9.0 6.5 6.4 84 1.2 S 9 13 5 7 1031.0 1031.0 0.0
24/10:30am 7.8 3.8 4.9 82 1.3 S 15 17 8 9 1031.1 1031.1 0.0
24/10:00am 6.4 2.3 4.6 88 0.8 S 15 17 8 9 1031.0 1031.0 0.0
24/09:30am 4.7 0.5 3.7 93 0.4 S 15 19 8 10 1031.0 1031.0 0.0
24/09:00am 3.5 -0.5 2.8 95 0.3 S 13 17 7 9 1031.0 1031.0 0.0
24/08:30am 2.6 -1.9 1.9 95 0.3 S 15 19 8 10 1030.7 1030.7 0.0
24/08:00am 2.0 -3.0 1.3 95 0.3 S 17 20 9 11 1030.3 1030.3 0.0
24/07:30am 2.0 -2.6 1.4 96 0.2 S 15 19 8 10 1030.2 1030.2 0.0
24/07:00am 1.6 -3.1 1.2 97 0.1 S 15 19 8 10 1030.1 1030.1 0.0
24/06:30am 2.2 -2.4 1.6 96 0.2 S 15 19 8 10 1030.0 1030.0 0.0
24/05:30am 2.6 -2.3 2.2 97 0.2 S 17 20 9 11 1029.6 1029.6 0.0
24/05:00am 2.2 -2.7 1.9 98 0.1 S 17 20 9 11 1029.5 1029.5 0.0
24/04:30am 2.9 -1.9 2.8 99 0.0 S 17 19 9 10 1029.3 1029.3 0.0
24/04:00am 3.1 -1.7 2.8 98 0.1 S 17 20 9 11 1029.2 1029.2 0.0
24/03:30am 3.2 -1.5 2.9 98 0.1 SSE 17 20 9 11 1029.2 1029.2 0.0
24/03:00am 3.6 0.1 3.6 100 0.0 S 11 17 6 9 1029.4 1029.4 0.0
24/02:30am 3.4 -1.3 3.3 99 0.0 SSE 17 22 9 12 1029.4 1029.4 0.0
24/02:00am 3.0 -1.7 2.9 99 0.0 SSE 17 20 9 11 1029.4 1029.4 0.0
24/01:30am 3.7 -0.9 3.6 99 0.0 SSE 17 20 9 11 1029.2 1029.2 0.0
24/01:00am 4.1 -1.0 4.1 100 0.0 SSE 20 24 11 13 1029.3 1029.3 0.0
24/12:30am 3.4 -0.9 3.4 100 0.0 S 15 19 8 10 1029.5 1029.5 0.0
24/12:00am 3.3 -1.4 3.3 100 0.0 S 17 20 9 11 1029.6 1029.6 0.0
 
Date/Time
EST
Temp
°C
App
Temp
°C
Dew
Point
Rel
Hum
%
Delta-T
°C
Wind Press
QNH
hPa
Press
MSL
hPa
Rain
since 9 am
mm
Dir
 
Spd
km/h
Gust
km/h
Spd
kts
Gust
kts
23/11:30pm 4.2 -0.3 4.2 100 0.0 S 17 19 9 10 1029.5 1029.5 0.0
23/11:00pm 3.6 -0.3 3.6 100 0.0 S 13 17 7 9 1029.4 1029.4 0.0
23/10:30pm 4.7 0.3 4.7 100 0.0 S 17 20 9 11 1029.5 1029.5 0.0
23/10:00pm 4.6 -0.2 4.6 100 0.0 S 19 20 10 11 1029.4 1029.4 0.0
23/09:30pm 4.6 0.5 4.6 100 0.0 S 15 17 8 9 1029.3 1029.3 0.0
23/09:00pm 5.6 1.8 5.6 100 0.0 S 15 17 8 9 1029.3 1029.3 0.0
23/08:30pm 5.6 1.8 5.6 100 0.0 S 15 17 8 9 1029.1 1029.1 0.0
23/08:00pm 5.2 0.9 5.2 100 0.0 S 17 19 9 10 1028.9 1028.9 0.0
23/07:30pm 5.6 1.8 5.6 100 0.0 S 15 17 8 9 1028.9 1028.9 0.0
23/07:00pm 6.1 2.7 6.1 100 0.0 S 13 15 7 8 1028.7 1028.7 0.0
23/06:30pm 6.3 2.6 6.3 100 0.0 SSE 15 17 8 9 1028.5 1028.5 0.0
23/06:00pm 6.4 3.5 6.4 100 0.0 S 11 13 6 7 1028.4 1028.4 0.0
23/05:30pm 7.2 4.8 7.2 100 0.0 SSE 9 13 5 7 1028.3 1028.3 0.0
23/05:00pm 9.8 8.7 9.8 100 0.0 SE 6 7 3 4 1028.2 1028.2 0.0
23/04:30pm 10.8 9.4 10.8 100 0.0 ENE 9 13 5 7 1028.2 1028.2 0.0
23/04:00pm 12.1 10.3 12.1 100 0.0 NE 13 15 7 8 1028.0 1028.0 0.0
23/03:30pm 13.3 12.1 12.8 97 0.3 NE 11 15 6 8 1028.0 1028.0 0.0
23/03:00pm 13.2 11.5 12.3 94 0.5 ENE 13 15 7 8 1028.0 1028.0 0.0
23/02:30pm 12.6 10.2 11.5 93 0.6 ENE 15 17 8 9 1028.1 1028.1 0.0
23/02:00pm 12.6 10.8 12.0 96 0.3 ENE 13 17 7 9 1028.2 1028.2 0.0
23/01:30pm 12.2 11.0 11.7 97 0.3 NE 9 13 5 7 1028.4 1028.4 0.0
23/01:00pm 11.6 10.1 10.7 94 0.5 NNE 9 13 5 7 1028.5 1028.5 0.0
23/12:30pm 11.3 10.0 9.9 91 0.7 NNE 7 11 4 6 1028.7 1028.7 0.0
23/12:00pm 10.8 9.3 9.1 89 0.8 N 7 11 4 6 1029.0 1029.0 0.0
23/11:30am 11.1 10.3 9.5 90 0.8 N 4 9 2 5 1029.5 1029.5 0.0
23/11:00am 11.1 11.1 9.7 91 0.7 CALM 0 0 0 0 1029.9 1029.9 0.0
23/10:30am 8.9 7.5 7.2 89 0.8 W 4 7 2 4 1030.0 1030.0 0.0
23/10:00am 7.7 5.0 5.7 87 0.9 S 9 11 5 6 1030.1 1030.1 0.0
23/09:30am 6.4 3.2 4.9 90 0.7 S 11 15 6 8 1030.0 1030.0 0.0
23/09:00am 4.7 2.0 3.8 94 0.4 SSW 7 11 4 6 1029.9 1029.9 0.0
23/08:30am 2.9 -1.2 2.5 97 0.2 SSE 13 17 7 9 1029.7 1029.7 0.0
23/08:00am 2.5 -1.2 2.1 97 0.2 S 11 15 6 8 1029.4 1029.4 0.0
23/07:30am 1.2 -2.7 0.9 98 0.1 S 11 13 6 7 1029.3 1029.3 0.0
23/07:00am 1.1 -2.9 0.7 97 0.1 SSE 11 13 6 7 1029.0 1029.0 0.0
23/06:30am 1.6 -3.0 1.3 98 0.1 SSE 15 17 8 9 1028.6 1028.6 0.0
23/06:00am 2.2 -1.2 1.9 98 0.1 SSW 9 13 5 7 1028.4 1028.4 0.0
23/05:30am 2.0 -2.2 1.7 98 0.1 S 13 17 7 9 1028.3 1028.3 0.0
23/05:00am 1.7 -1.4 1.6 99 0.0 SSW 7 9 4 5 1028.3 1028.3 0.0
23/04:30am 2.3 -1.4 2.2 99 0.0 SSW 11 13 6 7 1028.2 1028.2 0.0
23/04:00am 1.9 -0.9 1.8 99 0.0 S 6 9 3 5 1028.1 1028.1 0.0
23/03:30am 2.4 -1.7 2.4 100 0.0 S 13 17 7 9 1028.1 1028.1 0.0
23/03:00am 1.8 -2.4 1.8 100 0.0 S 13 15 7 8 1028.2 1028.2 0.0
23/02:30am 2.4 -1.7 2.4 100 0.0 S 13 17 7 9 1028.2 1028.2 0.0
23/02:00am 2.5 -1.6 2.4 99 0.0 S 13 17 7 9 1028.1 1028.1 0.0
23/01:30am 2.8 -1.6 2.7 99 0.0 S 15 19 8 10 1028.1 1028.1 0.0
23/01:00am 2.7 -1.3 2.7 100 0.0 S 13 19 7 10 1028.3 1028.3 0.0
23/12:30am 2.6 -1.1 2.6 100 0.0 S 11 15 6 8 1028.3 1028.3 0.0
23/12:00am 3.1 -0.5 3.1 100 0.0 S 11 15 6 8 1028.3 1028.3 0.0
 
Date/Time
EST
Temp
°C
App
Temp
°C
Dew
Point
Rel
Hum
%
Delta-T
°C
Wind Press
QNH
hPa
Press
MSL
hPa
Rain
since 9 am
mm
Dir
 
Spd
km/h
Gust
km/h
Spd
kts
Gust
kts
22/11:30pm 3.2 -0.4 3.2 100 0.0 SSE 11 15 6 8 1028.4 1028.4 0.0
22/11:00pm 3.2 -0.7 3.2 100 0.0 S 13 17 7 9 1028.3 1028.3 0.0
22/10:30pm 3.5 0.0 3.5 100 0.0 S 11 15 6 8 1028.3 1028.3 0.0
22/10:00pm 4.3 1.6 3.6 95 0.3 S 7 13 4 7 1028.4 1028.4 0.0
22/09:30pm 4.9 2.0 4.9 100 0.0 SSE 9 13 5 7 1028.4 1028.4 0.0
22/09:00pm 3.0 0.2 3.0 100 0.0 SSE 7 13 4 7 1028.4 1028.4 0.0
22/08:30pm 4.5 1.6 4.5 100 0.0 SSW 9 13 5 7 1028.4 1028.4 0.0
22/08:00pm 4.9 1.3 4.9 100 0.0 S 13 13 7 7 1028.1 1028.1 0.0
22/07:30pm 4.5 1.2 4.5 100 0.0 S 11 13 6 7 1028.0 1028.0 0.0
22/07:00pm 4.2 1.2 4.2 100 0.0 WSW 9 11 5 6 1027.8 1027.8 0.0
22/06:30pm 4.9 3.0 4.9 100 0.0 S 4 9 2 5 1027.8 1027.8 0.0
22/06:00pm 6.1 5.2 6.1 100 0.0 CALM 0 0 0 0 1027.7 1027.7 0.0
22/05:30pm 8.1 7.7 8.1 100 0.0 CALM 0 4 0 2 1027.6 1027.6 0.0
22/05:00pm 9.8 8.5 9.8 100 0.0 NNW 7 9 4 5 1027.5 1027.5 0.0
22/04:30pm 10.4 8.8 10.1 98 0.2 NNW 9 11 5 6 1027.4 1027.4 0.0
22/04:00pm 11.2 9.7 10.4 95 0.4 NW 9 13 5 7 1027.5 1027.5 0.0
22/03:30pm 11.7 9.9 10.8 94 0.5 NW 11 13 6 7 1027.4 1027.4 0.0
22/03:00pm 11.8 9.9 10.4 91 0.7 NW 11 13 6 7 1027.3 1027.3 0.0
22/02:30pm 11.7 9.4 10.6 93 0.6 NNW 13 17 7 9 1027.2 1027.2 0.0
22/02:00pm 11.5 8.7 10.1 91 0.7 NNW 15 20 8 11 1027.4 1027.4 0.0
22/01:30pm 12.2 11.8 9.9 86 1.2 SE 2 7 1 4 1027.6 1027.6 0.0
22/01:00pm 11.8 11.0 9.5 86 1.2 SSE 4 9 2 5 1027.9 1027.9 0.0
22/12:30pm 11.5 10.0 9.2 86 1.2 S 7 13 4 7 1028.3 1028.3 0.0
22/12:00pm 10.9 8.9 8.5 85 1.2 S 9 15 5 8 1028.4 1028.4 0.0
22/11:30am 10.7 8.7 8.8 88 0.9 SE 9 13 5 7 1029.0 1029.0 0.0
22/11:00am 10.2 7.9 9.0 92 0.6 S 11 15 6 8 1029.3 1029.3 0.0
22/10:30am 10.1 7.1 9.2 94 0.4 S 15 20 8 11 1029.5 1029.5 0.0
22/10:00am 8.8 5.8 7.9 94 0.4 S 13 17 7 9 1029.2 1029.2 0.0
22/09:30am 7.6 3.7 6.9 95 0.3 S 17 20 9 11 1029.4 1029.4 0.0
22/09:00am 6.4 3.1 6.4 100 0.0 S 13 20 7 11 1029.6 1029.6 0.0
22/08:30am 5.5 2.4 5.5 100 0.0 SSW 11 13 6 7 1029.3 1029.3 0.0
22/08:00am 4.5 1.2 4.5 100 0.0 S 11 15 6 8 1029.1 1029.1 0.0
22/07:30am 4.8 1.2 4.8 100 0.0 S 13 15 7 8 1029.4 1029.4 0.0
22/07:00am 4.3 1.0 4.3 100 0.0 S 11 13 6 7 1029.1 1029.1 0.0
22/06:30am 4.2 0.5 4.2 100 0.0 S 13 13 7 7 1028.8 1028.8 0.0
22/06:00am 4.6 1.3 4.6 100 0.0 S 11 13 6 7 1028.6 1028.6 0.0

Other Formats:

Comma delimited format used in spreadsheet applications
http://www.bom.gov.au/fwo/IDT60801/IDT60801.95960.axf

JavaScript Object Notation format (JSON) in row-major order
http://www.bom.gov.au/fwo/IDT60801/IDT60801.95960.json